Flight Track Log - Related Links

Times and Time Zones

All times are in EDT time to prevent confusion due to time zone crossing. See the N100P flight status page for this flight to view local times or setup timezone preferences in your user account.

Time Position Orientation Groundspeed Altitude Reporting Facility
EDT Latitude Longitude Course Direction KTS MPH feet Rate Location/Type
Wed 05:28:00 PM 31.9022 -81.2718 200° South  Level Estimated
Wed 05:29:00 PM 31.8582 -81.2898 199° South  Level FlightAware Approximate
Wed 05:30:00 PM 31.8131 -81.3036 192° South  Level Estimated
Wed 05:30:06 PM 31.8411 -81.2931 198° South 149 171 7,300  Level Jacksonville Center
Wed 05:31:00 PM 31.7680 -81.3175 220° Southwest  Level Estimated
Wed 05:31:06 PM 31.7997 -81.3061 195° South 149 171 8,300  Level Jacksonville Center
Wed 05:32:00 PM 31.7174 -81.3333 180° South  Level FlightAware Approximate
Wed 05:32:06 PM 31.7642 -81.3214 200° South 149 171 9,400  Level Jacksonville Center
Wed 05:33:00 PM 31.6738 -81.3524 201° Southwest  Level FlightAware Approximate
Wed 05:33:06 PM 31.7228 -81.3342 195° South 149 171 10,500  Level Jacksonville Center
Wed 05:34:00 PM 31.6302 -81.3718 201° Southwest  Level FlightAware Approximate
Wed 05:34:06 PM 31.6811 -81.3472 195° South 149 171 11,600  Level Jacksonville Center
Wed 05:35:06 PM 31.6417 -81.3625 198° South 154 177 12,100 200 Climbing Jacksonville Center
Wed 05:36:06 PM 31.5875 -81.3806 196° South 181 208 12,000 -50 Descending Jacksonville Center
Wed 05:37:06 PM 31.5461 -81.4081 210° Southwest 180 207 12,000  Level Jacksonville Center
Wed 05:38:06 PM 31.5047 -81.4281 202° Southwest 180 207 12,000  Level Jacksonville Center
Wed 05:39:06 PM 31.4569 -81.4581 208° Southwest 180 207 12,000  Level Jacksonville Center
Wed 05:40:06 PM 31.4111 -81.4831 205° Southwest 175 201 12,000 50 Level Jacksonville Center
Wed 05:41:06 PM 31.3719 -81.5081 209° Southwest 181 208 12,100 50 Climbing Jacksonville Center
Wed 05:42:06 PM 31.3283 -81.5378 210° Southwest 181 208 12,100  Level Jacksonville Center
Wed 05:43:06 PM 31.2847 -81.5628 206° Southwest 181 208 12,100  Level Jacksonville Center
Wed 05:44:06 PM 31.2392 -81.5925 209° Southwest 181 208 12,100  Level Jacksonville Center
Wed 05:45:06 PM 31.1956 -81.6175 206° Southwest 181 208 12,100  Level Jacksonville Center
Wed 05:46:06 PM 31.1497 -81.6447 207° Southwest 181 208 12,100  Level Jacksonville Center
Wed 05:47:06 PM 31.1064 -81.6722 209° Southwest 181 208 12,100  Level Jacksonville Center
Wed 05:48:06 PM 31.0606 -81.6994 207° Southwest 181 208 12,100  Level Jacksonville Center
Wed 05:49:06 PM 31.0169 -81.7267 208° Southwest 181 208 12,100  Level Jacksonville Center
Wed 05:50:06 PM 30.9714 -81.7539 207° Southwest 181 208 12,100 50 Level Jacksonville Center
Wed 05:51:06 PM 30.9278 -81.7761 204° Southwest 181 208 12,200 50 Climbing Jacksonville Center
Wed 05:52:06 PM 30.8797 -81.7961 200° South 176 203 12,200  Level Jacksonville Center
Wed 05:53:06 PM 30.8342 -81.8136 198° South 176 203 12,200  Level Jacksonville Center
Wed 05:54:06 PM 30.7861 -81.8333 199° South 176 203 12,200  Level Jacksonville Center
Wed 05:55:06 PM 30.7383 -81.8533 200° South 181 208 12,200  Level Jacksonville Center
Wed 05:56:18 PM 30.6781 -81.8733 196° South 179 206 12,200  Level Jacksonville Center
Wed 05:57:13 PM 30.6342 -81.8931 201° Southwest 180 207 12,200  Level Jacksonville Center
Wed 05:58:13 PM 30.5864 -81.9128 200° South 181 208 12,200 149 Level Jacksonville Center
Wed 05:59:14 PM 30.5386 -81.9328 200° South 174 200 12,500 393 Climbing Jacksonville Center
Wed 06:00:15 PM 30.4928 -81.9525 200° South 176 203 13,000 234 Climbing Jacksonville Center
Wed 06:01:22 PM 30.4386 -81.9722 197° South 188 216 13,000  Level Jacksonville Center
Wed 06:02:23 PM 30.3886 -81.9944 201° Southwest 185 213 13,000  Level Jacksonville Center
Wed 06:03:24 PM 30.3408 -82.0164 202° Southwest 185 213 13,000 49 Level Jacksonville Center
Wed 06:04:25 PM 30.2908 -82.0336 197° South 185 213 13,100 49 Climbing Jacksonville Center
Wed 06:05:26 PM 30.2428 -82.0533 200° South 184 212 13,100  Level Jacksonville Center
Wed 06:06:27 PM 30.1928 -82.0731 199° South 185 213 13,100  Level Jacksonville Center
Wed 06:07:19 PM 30.1511 -82.0878 197° South 187 215 13,100  Level Jacksonville Center
Wed 06:08:19 PM 30.1033 -82.1075 200° South 187 215 13,100  Level Jacksonville Center
Wed 06:09:18 PM 30.0597 -82.1269 201° Southwest 205 236 13,100  Level Jacksonville Center
Wed 06:10:19 PM 30.0097 -82.1467 199° South 205 236 13,100  Level Jacksonville Center
Wed 06:11:18 PM 29.9658 -82.1661 201° Southwest 199 229 13,100  Level Jacksonville Center
Wed 06:12:19 PM 29.9097 -82.1881 199° South 189 217 13,100  Level Jacksonville Center
Wed 06:13:18 PM 29.8597 -82.2075 199° South 189 217 13,100  Level Jacksonville Center
Wed 06:14:19 PM 29.8097 -82.2272 199° South 189 217 13,100  Level Jacksonville Center
Wed 06:15:19 PM 29.7617 -82.2467 199° South 189 217 13,100  Level Jacksonville Center
Wed 06:16:19 PM 29.7117 -82.2614 194° South 189 217 13,100  Level Jacksonville Center
Wed 06:17:19 PM 29.6639 -82.2758 195° South 189 217 13,100  Level Jacksonville Center
Wed 06:18:18 PM 29.6136 -82.2906 194° South 189 217 13,100 50 Level Jacksonville Center
Wed 06:19:18 PM 29.5636 -82.3028 192° South 184 212 13,200  Climbing Jacksonville Center
Wed 06:20:19 PM 29.5158 -82.3125 190° South 184 212 13,100  Descending Jacksonville Center
Wed 06:21:19 PM 29.4656 -82.3250 192° South 184 212 13,200 -340 Climbing Jacksonville Center
Wed 06:22:05 PM 29.4197 -82.3369 193° South 201 231 12,500 -868 Descending Jacksonville Center
Wed 06:22:35 PM 29.3947 -82.3444 195° South 212 244 12,100 -730 Descending Jacksonville Center
Wed 06:23:19 PM 29.3531 -82.3517 189° South 201 231 11,600 -635 Descending Jacksonville Center
Wed 06:24:19 PM 29.2947 -82.3664 192° South 209 241 11,000 -650 Descending Jacksonville Center
Wed 06:25:19 PM 29.2364 -82.3786 190° South 214 246 10,300 -650 Descending Jacksonville Center
Wed 06:26:19 PM 29.1800 -82.3764 178° South 214 246 9,700 -600 Descending Jacksonville Center
Wed 06:27:19 PM 29.1256 -82.3672 172° South 209 241 9,100 -700 Descending Jacksonville Center
Wed 06:28:19 PM 29.0733 -82.3581 171° South 204 235 8,300 -750 Descending Jacksonville Center
Wed 06:29:19 PM 29.0169 -82.3489 172° South 199 229 7,600 -650 Descending Jacksonville Center
Wed 06:30:19 PM 28.9647 -82.3419 173° South 199 229 7,000 -300 Descending Jacksonville Center
Wed 06:31:19 PM 28.9167 -82.3375 175° South 199 229 7,000  Level Jacksonville Center
Wed 06:32:43 PM 28.8458 -82.3283 174° South 166 191 7,000  Level Jacksonville Center
Wed 06:33:44 PM 28.7997 -82.3217 173° South 165 190 7,000  Level Jacksonville Center
Wed 06:35:46 PM 28.7167 -82.3000 167° South 165 190 7,000  Level Tampa TRACON
Wed 06:36:46 PM 28.6667 -82.3000 180° South 167 192 7,000  Level Tampa TRACON
Wed 06:37:46 PM 28.6167 -82.2833 164° South 169 194 7,000  Level Tampa TRACON
Wed 06:38:46 PM 28.5667 -82.2833 180° South 170 196 7,000 -450 Level Tampa TRACON
Wed 06:39:46 PM 28.5167 -82.2833 180° South 186 214 6,100 -800 Descending Tampa TRACON
Wed 06:40:46 PM 28.4667 -82.2667 164° South 195 224 5,400 -550 Descending Tampa TRACON
Wed 06:41:46 PM 28.4167 -82.2833 196° South 195 224 5,000 -474 Descending Tampa TRACON
Wed 06:42:40 PM 28.3667 -82.3000 196° South 185 213 4,500 -667 Descending Tampa TRACON
Wed 06:43:52 PM 28.3000 -82.3333 204° Southwest 200 230 3,600 -682 Descending Tampa TRACON
Wed 06:44:52 PM 28.2500 -82.3500 196° South 194 223 3,000 -476 Descending Tampa TRACON
Wed 06:45:58 PM 28.2000 -82.3667 196° South 188 216 2,600 -364 Descending Tampa TRACON

Login

Don't have an account? Register now (free) for customized features, flight alerts, and more!